Time;durP1;ratioP1;P1;durP2;ratioP2;P2;SDS_P1;SDS_P2;PMS_P1;PMS_P2;Temp;Humidity;BMP_temperature;BMP_pressure;BME280_temperature;BME280_humidity;BME280_pressure;Samples;Min_cycle;Max_cycle;Signal;HPM_P1;HPM_P2
2022/03/17 00:01:01;;;;;;;26.60;18.13;;;;;;;5.15;67.08;101887.81;4987760;28;20113;-21
2022/03/17 00:03:28;;;;;;;24.13;17.33;;;;;;;5.13;67.40;101889.47;4989463;28;20393;-21
2022/03/17 00:05:53;;;;;;;27.85;18.73;;;;;;;5.12;67.07;101891.22;4988695;28;20038;-21
2022/03/17 00:08:19;;;;;;;27.58;18.85;;;;;;;5.11;67.57;101891.16;4990670;28;20026;-21
2022/03/17 00:10:45;;;;;;;27.13;18.27;;;;;;;5.10;66.86;101886.78;4987628;28;20056;-21
2022/03/17 00:13:11;;;;;;;27.73;18.60;;;;;;;5.09;66.72;101887.59;4988186;28;20050;-21
2022/03/17 00:15:39;;;;;;;27.77;18.65;;;;;;;5.09;66.95;101901.56;4987839;28;20031;-21
2022/03/17 00:18:05;;;;;;;28.40;18.48;;;;;;;5.08;67.02;101891.06;4989562;28;20022;-21
2022/03/17 00:20:30;;;;;;;23.70;17.60;;;;;;;5.08;67.26;101897.19;4990448;28;20524;-21
2022/03/17 00:22:55;;;;;;;27.20;18.35;;;;;;;5.06;66.79;101891.00;4992948;28;20464;-21
2022/03/17 00:25:21;;;;;;;25.90;18.25;;;;;;;5.06;66.97;101893.63;4992272;28;20108;-21
2022/03/17 00:27:46;;;;;;;23.30;17.17;;;;;;;5.06;67.31;101882.25;4991965;28;20096;-21
2022/03/17 00:30:12;;;;;;;24.52;17.42;;;;;;;5.04;66.66;101882.22;4986751;28;20117;-21
2022/03/17 00:32:38;;;;;;;25.55;17.40;;;;;;;5.03;66.54;101872.59;4990095;28;20084;-21
2022/03/17 00:37:49;;;;;;;28.10;18.83;;;;;;;5.01;67.35;101880.38;4989189;28;20443;-21
2022/03/17 00:40:14;;;;;;;26.67;17.58;;;;;;;4.98;66.67;101875.06;4991292;28;20026;-21
2022/03/17 00:42:40;;;;;;;26.27;18.17;;;;;;;4.98;67.12;101875.06;4989529;28;20064;-21
2022/03/17 00:45:05;;;;;;;25.95;17.33;;;;;;;4.99;66.58;101878.56;4992575;28;20041;-22
2022/03/17 00:47:31;;;;;;;29.80;18.33;;;;;;;4.98;67.42;101874.16;4985376;28;20490;-22
2022/03/17 00:49:56;;;;;;;26.90;18.83;;;;;;;4.96;67.18;101868.88;4991144;28;20054;-21
2022/03/17 00:52:22;;;;;;;24.85;16.45;;;;;;;4.94;67.16;101873.16;4993771;28;20022;-21
2022/03/17 00:54:47;;;;;;;27.05;18.13;;;;;;;4.93;66.90;101871.38;4989127;28;20034;-21
2022/03/17 00:57:13;;;;;;;26.73;18.25;;;;;;;4.92;67.42;101874.84;4987894;28;20033;-22
2022/03/17 00:59:38;;;;;;;25.40;18.10;;;;;;;4.91;66.87;101867.84;4990497;28;20037;-21
2022/03/17 01:02:05;;;;;;;25.83;17.65;;;;;;;4.90;67.08;101866.06;4992737;28;20038;-21
2022/03/17 01:04:30;;;;;;;27.30;17.77;;;;;;;4.90;67.01;101870.41;4990875;28;20049;-21
2022/03/17 01:06:55;;;;;;;28.30;18.48;;;;;;;4.89;66.95;101872.13;4988511;28;20484;-21
2022/03/17 01:09:21;;;;;;;26.85;18.35;;;;;;;4.88;66.96;101870.34;4988623;28;20054;-21
2022/03/17 01:11:46;;;;;;;25.25;17.83;;;;;;;4.86;66.89;101864.19;4989981;28;20022;-21
2022/03/17 01:14:13;;;;;;;24.92;18.35;;;;;;;4.85;66.90;101862.41;4989886;28;20487;-21
2022/03/17 01:16:42;;;;;;;26.35;18.20;;;;;;;4.84;66.51;101855.41;4986137;28;20018;-21
2022/03/17 01:19:07;;;;;;;27.00;18.52;;;;;;;4.82;66.96;101855.34;4986241;28;20026;-21
2022/03/17 01:21:33;;;;;;;25.45;16.80;;;;;;;4.82;66.93;101862.28;4990670;28;20085;-21
2022/03/17 01:23:58;;;;;;;26.35;18.63;;;;;;;4.81;67.01;101857.91;4991034;28;20069;-22
2022/03/17 01:26:24;;;;;;;27.33;18.73;;;;;;;4.79;66.64;101846.50;4991347;28;20038;-21
2022/03/17 01:28:50;;;;;;;26.60;18.05;;;;;;;4.78;66.82;101847.34;4988411;28;20027;-21
2022/03/17 01:31:15;;;;;;;27.02;18.48;;;;;;;4.76;66.59;101839.44;4987763;28;20452;-22
2022/03/17 01:33:40;;;;;;;26.77;18.55;;;;;;;4.74;67.10;101835.91;4986840;28;20042;-22
2022/03/17 01:36:06;;;;;;;27.85;17.50;;;;;;;4.72;67.36;101838.47;4988404;28;20060;-21
2022/03/17 01:38:31;;;;;;;26.90;19.00;;;;;;;4.71;66.58;101839.28;4990025;28;20038;-21
2022/03/17 01:40:56;;;;;;;25.42;18.00;;;;;;;4.69;67.04;101843.59;4983792;28;20029;-21
2022/03/17 01:43:22;;;;;;;27.17;18.15;;;;;;;4.69;67.24;101840.06;4987051;28;20057;-21
2022/03/17 01:45:47;;;;;;;27.90;17.95;;;;;;;4.66;67.24;101840.88;4988216;28;20388;-21
2022/03/17 01:48:12;;;;;;;24.88;16.48;;;;;;;4.66;66.99;101834.75;4987899;28;20396;-21
2022/03/17 01:50:38;;;;;;;25.73;17.73;;;;;;;4.65;67.30;101843.44;4989498;28;20038;-21
2022/03/17 01:53:03;;;;;;;27.75;18.23;;;;;;;4.63;67.05;101843.38;4986598;28;20034;-21
2022/03/17 01:55:30;;;;;;;26.55;18.23;;;;;;;4.62;67.10;101844.22;4987865;28;20641;-21
2022/03/17 01:57:56;;;;;;;25.38;17.95;;;;;;;4.60;67.32;101838.94;4987323;28;20689;-21
2022/03/17 02:00:22;;;;;;;27.55;18.77;;;;;;;4.60;67.21;101840.66;4986240;28;20034;-22
2022/03/17 02:02:49;;;;;;;29.20;19.40;;;;;;;4.58;66.78;101842.34;4987141;28;20607;-22
2022/03/17 02:05:14;;;;;;;26.83;17.40;;;;;;;4.58;66.93;101858.91;4991513;28;20026;-21
2022/03/17 02:07:42;;;;;;;28.35;17.40;;;;;;;4.56;67.31;101854.44;4988902;28;20220;-22
2022/03/17 02:10:08;;;;;;;25.95;18.30;;;;;;;4.55;66.95;101839.63;4988897;28;20026;-21
2022/03/17 02:15:17;;;;;;;26.38;17.88;;;;;;;4.51;66.94;101845.56;4991223;28;20139;-22
2022/03/17 02:17:43;;;;;;;22.90;16.75;;;;;;;4.49;67.02;101842.91;4984840;28;20871;-22
2022/03/17 02:20:13;;;;;;;27.00;17.70;;;;;;;4.48;66.88;101842.03;4973930;28;20023;-22
2022/03/17 02:22:45;;;;;;;26.27;16.58;;;;;;;4.46;66.82;101843.69;4989442;28;20030;-21
2022/03/17 02:27:55;;;;;;;24.75;16.60;;;;;;;4.42;66.87;101836.56;4987015;28;20110;-21
2022/03/17 02:30:21;;;;;;;25.45;18.85;;;;;;;4.41;67.28;101824.34;4987904;28;20470;-21
2022/03/17 02:32:47;;;;;;;26.65;17.67;;;;;;;4.39;66.92;101826.00;4992026;28;20029;-21
2022/03/17 02:35:22;;;;;;;26.83;18.38;;;;;;;4.38;67.27;101839.03;4990016;28;20081;-22
2022/03/17 02:37:48;;;;;;;27.45;18.27;;;;;;;4.37;66.92;101838.16;4988992;28;20037;-21
2022/03/17 02:40:14;;;;;;;25.98;17.50;;;;;;;4.35;66.96;101834.59;4989225;28;20033;-21
2022/03/17 02:42:39;;;;;;;30.45;17.98;;;;;;;4.32;66.97;101834.47;4990826;28;20026;-22
2022/03/17 02:45:07;;;;;;;24.67;17.38;;;;;;;4.32;67.38;101837.06;4987888;28;20022;-21
2022/03/17 02:47:32;;;;;;;26.13;17.73;;;;;;;4.29;67.14;101830.03;4993167;28;20117;-21
2022/03/17 02:49:58;;;;;;;28.00;18.60;;;;;;;4.28;66.85;101837.81;4990668;28;20027;-21
2022/03/17 02:52:24;;;;;;;27.75;17.33;;;;;;;4.27;66.98;101838.66;4994635;28;20464;-21
2022/03/17 02:54:50;;;;;;;27.02;17.23;;;;;;;4.23;67.03;101835.91;5002064;28;20034;-21
2022/03/17 02:57:17;;;;;;;27.73;18.52;;;;;;;4.22;66.60;101823.72;4998408;28;20050;-21
2022/03/17 02:59:42;;;;;;;23.83;16.80;;;;;;;4.21;67.34;101840.19;4997092;28;20435;-22
2022/03/17 03:02:08;;;;;;;27.58;18.42;;;;;;;4.18;67.01;101837.50;4992462;28;20173;-21
2022/03/17 03:04:33;;;;;;;28.38;18.45;;;;;;;4.17;66.69;101840.03;4992055;28;20325;-21
2022/03/17 03:07:01;;;;;;;26.98;17.80;;;;;;;4.14;67.24;101838.22;4991862;28;20109;-21
2022/03/17 03:09:27;;;;;;;25.88;18.08;;;;;;;4.14;67.50;101830.38;4990480;28;20054;-22
2022/03/17 03:11:52;;;;;;;27.30;17.75;;;;;;;4.11;66.93;101820.69;4992528;28;20045;-21
2022/03/17 03:14:18;;;;;;;24.95;17.00;;;;;;;4.09;67.29;101829.31;4990577;28;20052;-21
2022/03/17 03:16:44;;;;;;;27.80;17.60;;;;;;;4.07;66.79;101829.25;4993055;28;20092;-22
2022/03/17 03:19:09;;;;;;;26.90;17.23;;;;;;;4.06;67.07;101832.69;4991435;28;20042;-21
2022/03/17 03:21:35;;;;;;;24.77;17.05;;;;;;;4.03;67.28;101829.97;4993302;28;20033;-21
2022/03/17 03:24:00;;;;;;;26.38;17.98;;;;;;;4.02;67.34;101824.69;4990035;28;20052;-21
2022/03/17 03:26:26;;;;;;;26.23;17.38;;;;;;;3.98;67.62;101835.00;4993760;28;20045;-22
2022/03/17 03:28:53;;;;;;;26.75;17.65;;;;;;;3.98;67.36;101836.75;4993127;28;20029;-21
2022/03/17 03:31:18;;;;;;;29.15;19.15;;;;;;;3.96;67.29;101844.53;4995054;28;20098;-22
2022/03/17 03:33:44;;;;;;;26.33;18.63;;;;;;;3.95;67.16;101844.47;4986502;28;20164;-22
2022/03/17 03:38:53;;;;;;;29.27;20.58;;;;;;;3.92;67.34;101844.34;4993814;28;20268;-21
2022/03/17 03:41:18;;;;;;;31.27;20.17;;;;;;;3.91;67.22;101846.09;4990579;28;20097;-21
2022/03/17 03:43:43;;;;;;;29.67;18.60;;;;;;;3.89;67.78;101845.13;4993885;28;20124;-22
2022/03/17 03:46:10;;;;;;;28.30;19.00;;;;;;;3.88;67.21;101851.19;4990990;28;20126;-21
2022/03/17 03:48:37;;;;;;;28.67;18.35;;;;;;;3.86;67.74;101860.66;4991429;28;20395;-22
2022/03/17 03:51:03;;;;;;;28.73;18.98;;;;;;;3.85;67.26;101848.47;4991012;28;20056;-22
2022/03/17 03:54:12;;;;;;;29.20;19.05;;;;;;;3.84;67.26;101841.47;5002879;28;20063;-22
2022/03/17 03:56:13;;;;;;;30.20;18.85;;;;;;;3.82;67.26;101841.41;4997243;28;20037;-22
2022/03/17 03:58:39;;;;;;;30.52;18.40;;;;;;;3.81;67.22;101851.78;4998291;28;20022;-22
2022/03/17 04:01:04;;;;;;;29.55;19.13;;;;;;;3.79;67.25;101849.13;4994003;28;20048;-22
2022/03/17 04:03:29;;;;;;;24.13;17.23;;;;;;;3.79;67.23;101856.03;4990990;28;20032;-21
2022/03/17 04:05:55;;;;;;;28.83;18.60;;;;;;;3.76;67.43;101863.78;4996487;28;20100;-21
2022/03/17 04:08:20;;;;;;;28.13;18.92;;;;;;;3.74;67.43;101861.13;4989706;28;20023;-21
2022/03/17 04:10:45;;;;;;;29.88;19.67;;;;;;;3.74;67.30;101853.28;4994429;28;20065;-22
2022/03/17 04:13:11;;;;;;;29.02;19.20;;;;;;;3.74;67.51;101865.44;4998812;28;20052;-21
2022/03/17 04:15:36;;;;;;;28.75;18.65;;;;;;;3.70;67.32;101864.44;4992891;28;20059;-21
2022/03/17 04:18:02;;;;;;;29.25;19.23;;;;;;;3.68;67.69;101861.75;5002160;28;20052;-21
2022/03/17 04:20:27;;;;;;;30.55;19.88;;;;;;;3.67;67.91;101856.47;4996935;28;20062;-21
2022/03/17 04:22:53;;;;;;;33.58;20.58;;;;;;;3.66;67.83;101858.19;4989047;28;20082;-22
2022/03/17 04:25:19;;;;;;;27.77;18.88;;;;;;;3.63;67.57;101858.06;4992083;28;20692;-21
2022/03/17 04:27:44;;;;;;;29.23;18.88;;;;;;;3.63;67.30;101859.81;4986453;28;20663;-22
2022/03/17 04:30:10;;;;;;;26.42;19.25;;;;;;;3.61;67.86;101857.13;4988685;28;20018;-21
2022/03/17 04:32:35;;;;;;;25.83;18.58;;;;;;;3.59;67.33;101864.91;4989172;28;20034;-22
2022/03/17 04:35:00;;;;;;;28.38;18.17;;;;;;;3.58;67.45;101857.00;4986993;28;20034;-21
2022/03/17 04:37:26;;;;;;;26.83;18.25;;;;;;;3.55;67.79;101849.97;4988410;28;20015;-22
2022/03/17 04:39:51;;;;;;;27.98;19.05;;;;;;;3.55;67.42;101856.88;4991711;28;20049;-22
2022/03/17 04:42:16;;;;;;;26.52;18.15;;;;;;;3.52;67.64;101852.44;4985810;28;20037;-21
2022/03/17 04:44:42;;;;;;;27.20;18.15;;;;;;;3.54;67.79;101857.72;4990298;28;20081;-21
2022/03/17 04:47:07;;;;;;;28.40;18.15;;;;;;;3.51;67.74;101862.81;4990300;28;20109;-21
2022/03/17 04:49:33;;;;;;;29.80;19.23;;;;;;;3.50;67.64;101855.81;4988343;28;20547;-21
2022/03/17 04:51:59;;;;;;;27.85;18.90;;;;;;;3.47;67.79;101862.69;4990998;28;20061;-21
2022/03/17 04:54:24;;;;;;;28.38;17.40;;;;;;;3.46;67.21;101860.91;4991690;28;20026;-22
2022/03/17 04:56:50;;;;;;;26.63;17.85;;;;;;;3.45;68.04;101868.69;4990515;28;20037;-22
2022/03/17 04:59:15;;;;;;;27.38;17.17;;;;;;;3.42;67.78;101861.63;4991197;28;20339;-21
2022/03/17 05:01:41;;;;;;;29.25;18.60;;;;;;;3.42;67.72;101863.34;4988119;28;20030;-22
2022/03/17 05:04:06;;;;;;;25.10;17.65;;;;;;;3.39;67.91;101856.28;4990764;28;20026;-21
2022/03/17 05:06:32;;;;;;;24.50;17.42;;;;;;;3.39;67.42;101863.22;4985174;28;20378;-21
2022/03/17 05:08:59;;;;;;;28.85;18.75;;;;;;;3.37;67.80;101870.97;4987677;28;20050;-21
2022/03/17 05:11:24;;;;;;;27.58;18.23;;;;;;;3.34;67.60;101863.91;4990694;28;20060;-21
2022/03/17 05:13:51;;;;;;;29.10;18.67;;;;;;;3.33;67.67;101872.56;4986629;28;20018;-21
2022/03/17 05:16:17;;;;;;;25.75;17.17;;;;;;;3.32;67.97;101877.72;4989576;28;20407;-22
2022/03/17 05:18:42;;;;;;;27.95;18.38;;;;;;;3.31;67.62;101884.66;4985453;28;20026;-21
2022/03/17 05:21:08;;;;;;;26.92;18.20;;;;;;;3.31;67.86;101883.78;4988524;28;20069;-21
2022/03/17 05:23:33;;;;;;;26.15;17.67;;;;;;;3.28;67.88;101876.72;4987249;28;20022;-21
2022/03/17 05:25:59;;;;;;;28.08;18.63;;;;;;;3.28;67.77;101876.72;4988831;28;20105;-21
2022/03/17 05:28:25;;;;;;;26.08;17.88;;;;;;;3.27;68.06;101876.66;4988828;28;20069;-21
2022/03/17 05:30:51;;;;;;;30.02;19.15;;;;;;;3.26;67.86;101877.47;4987999;28;20089;-21
2022/03/17 05:33:16;;;;;;;28.65;19.60;;;;;;;3.24;67.75;101886.97;4990091;28;20022;-21
2022/03/17 05:35:43;;;;;;;29.33;18.55;;;;;;;3.23;67.74;101895.63;4987476;28;20045;-22
2022/03/17 05:38:09;;;;;;;28.13;18.90;;;;;;;3.21;68.03;101891.22;4988795;28;20026;-21
2022/03/17 05:40:36;;;;;;;31.05;19.27;;;;;;;3.19;68.24;101892.88;4986547;28;20738;-21
2022/03/17 05:43:03;;;;;;;28.73;19.50;;;;;;;3.20;67.89;101898.97;4990244;28;20083;-21
2022/03/17 05:45:30;;;;;;;31.58;20.88;;;;;;;3.18;67.89;101898.94;4989165;28;20018;-21
2022/03/17 05:47:57;;;;;;;34.35;23.15;;;;;;;3.18;68.04;101904.16;4986778;28;20030;-21
2022/03/17 05:50:26;;;;;;;33.88;22.20;;;;;;;3.18;68.04;101908.47;4988477;28;20034;-21
2022/03/17 05:52:52;;;;;;;30.08;21.17;;;;;;;3.16;68.35;101903.19;4994135;28;20034;-21
2022/03/17 05:55:23;;;;;;;34.40;24.40;;;;;;;3.16;68.15;101905.78;4987942;28;20026;-21
2022/03/17 05:57:50;;;;;;;32.97;21.88;;;;;;;3.15;68.15;101906.63;4986613;28;20396;-21
2022/03/17 06:00:21;;;;;;;31.13;21.58;;;;;;;3.14;68.21;101894.38;4985069;28;20034;-21
2022/03/17 06:02:47;;;;;;;29.67;20.52;;;;;;;3.13;67.91;101891.75;4988841;28;20057;-22
2022/03/17 06:05:13;;;;;;;32.60;22.33;;;;;;;3.12;67.99;101890.84;4988074;28;20113;-21
2022/03/17 06:07:40;;;;;;;29.15;20.73;;;;;;;3.14;68.06;101889.19;4993267;28;20044;-21
2022/03/17 06:10:08;;;;;;;32.00;22.13;;;;;;;3.12;68.04;101890.84;4993150;28;20107;-21
2022/03/17 06:12:33;;;;;;;29.10;22.15;;;;;;;3.15;68.32;101896.19;4994256;28;20682;-21
2022/03/17 06:14:59;;;;;;;31.75;22.02;;;;;;;3.14;68.48;101889.19;4994407;28;20032;-21
2022/03/17 06:17:40;;;;;;;32.45;22.80;;;;;;;3.15;67.68;101906.63;4993262;28;20045;-21
2022/03/17 06:20:09;;;;;;;29.27;20.83;;;;;;;3.15;68.23;101906.63;4993382;28;20169;-21
2022/03/17 06:22:39;;;;;;;30.77;22.98;;;;;;;3.16;68.08;101903.19;4993446;28;20458;-21
2022/03/17 06:25:05;;;;;;;32.50;21.48;;;;;;;3.16;68.20;101905.78;4990365;28;20381;-21
2022/03/17 06:27:31;;;;;;;31.25;20.98;;;;;;;3.17;68.06;101904.09;4993222;28;20028;-21
2022/03/17 06:29:56;;;;;;;32.67;21.02;;;;;;;3.19;67.90;101910.22;4993550;28;20038;-21
2022/03/17 06:32:21;;;;;;;27.90;20.88;;;;;;;3.18;68.38;101909.38;4990983;28;20030;-21
2022/03/17 06:34:47;;;;;;;29.08;21.05;;;;;;;3.19;67.98;101905.91;4996960;28;20041;-21
2022/03/17 06:37:12;;;;;;;27.95;20.83;;;;;;;3.20;68.01;101909.41;4994473;28;20030;-21
2022/03/17 06:39:37;;;;;;;28.08;19.83;;;;;;;3.21;67.99;101916.41;4998376;28;20083;-22
2022/03/17 06:42:03;;;;;;;29.75;21.67;;;;;;;3.23;68.08;101913.88;4992210;28;20018;-21
2022/03/17 06:44:28;;;;;;;34.35;21.45;;;;;;;3.23;68.22;101916.47;4997047;28;20044;-21
2022/03/17 06:46:54;;;;;;;28.02;19.58;;;;;;;3.23;68.08;101919.09;4991599;28;20570;-22
2022/03/17 06:49:19;;;;;;;31.02;20.02;;;;;;;3.21;67.86;101917.28;4994479;28;20084;-21
2022/03/17 06:51:45;;;;;;;31.77;21.33;;;;;;;3.25;67.73;101923.53;4995790;28;20069;-22
2022/03/17 06:54:10;;;;;;;29.25;20.50;;;;;;;3.27;67.61;101926.22;4992424;28;20033;-21
2022/03/17 06:56:35;;;;;;;27.80;19.10;;;;;;;3.27;67.55;101921.88;4992063;28;20033;-21
2022/03/17 06:59:01;;;;;;;34.83;21.52;;;;;;;3.29;67.70;101911.50;4993450;28;20037;-21
2022/03/17 07:01:26;;;;;;;31.15;21.60;;;;;;;3.30;67.96;101915.91;4991351;28;20116;-21
2022/03/17 07:03:51;;;;;;;29.23;20.27;;;;;;;3.29;67.15;101908.88;4990882;28;20543;-21
2022/03/17 07:06:17;;;;;;;29.42;19.80;;;;;;;3.30;67.24;101900.25;4990650;28;20450;-21
2022/03/17 07:08:42;;;;;;;29.83;19.77;;;;;;;3.32;67.81;101911.63;4993541;28;20533;-21
2022/03/17 07:11:08;;;;;;;26.35;20.02;;;;;;;3.31;67.53;101910.72;4991296;28;20037;-21
2022/03/17 07:13:33;;;;;;;27.92;18.80;;;;;;;3.34;67.87;101912.59;4987860;28;20488;-21
2022/03/17 07:15:59;;;;;;;35.92;22.05;;;;;;;3.34;67.96;101917.81;4989104;28;20091;-21
2022/03/17 07:18:24;;;;;;;33.83;20.13;;;;;;;3.36;67.63;101913.53;4990200;28;20033;-22
2022/03/17 07:20:50;;;;;;;32.83;21.20;;;;;;;3.37;67.48;101917.91;4986752;28;20041;-22
2022/03/17 07:23:15;;;;;;;32.45;21.10;;;;;;;3.38;67.72;101917.09;4990698;28;20112;-21
2022/03/17 07:25:41;;;;;;;29.02;20.00;;;;;;;3.39;67.79;101916.28;4990587;28;20018;-21
2022/03/17 07:28:07;;;;;;;27.38;19.77;;;;;;;3.42;67.56;101931.16;4992147;28;20022;-21
2022/03/17 07:30:33;;;;;;;32.13;20.45;;;;;;;3.44;67.74;101940.81;4992907;28;20029;-21
2022/03/17 07:32:59;;;;;;;33.05;20.85;;;;;;;3.45;67.58;101942.63;4995200;28;20049;-21
2022/03/17 07:35:29;;;;;;;36.45;21.75;;;;;;;3.46;67.73;101939.16;4990521;28;20027;-21
2022/03/17 07:37:56;;;;;;;31.98;21.10;;;;;;;3.47;67.89;101940.94;4985446;28;20034;-22
2022/03/17 07:40:22;;;;;;;30.17;19.92;;;;;;;3.50;67.43;101944.53;4988897;28;20026;-21
2022/03/17 07:42:47;;;;;;;34.25;20.80;;;;;;;3.52;67.72;101942.84;4993066;28;20070;-21
2022/03/17 07:45:12;;;;;;;33.10;21.55;;;;;;;3.54;67.55;101942.06;4988394;28;20042;-21
2022/03/17 07:47:48;;;;;;;33.45;22.00;;;;;;;3.56;67.97;101947.34;4988740;28;20114;-21
2022/03/17 07:50:14;;;;;;;32.58;21.50;;;;;;;3.56;67.81;101940.44;4977554;28;20023;-21
2022/03/17 07:52:40;;;;;;;32.83;21.70;;;;;;;3.58;68.05;101948.31;4989041;28;20080;-21
2022/03/17 07:55:06;;;;;;;33.15;20.88;;;;;;;3.60;68.01;101951.88;4992906;28;20101;-22
2022/03/17 07:57:32;;;;;;;33.60;21.98;;;;;;;3.63;67.97;101945.91;4991678;28;20579;-22
2022/03/17 07:59:58;;;;;;;33.13;21.73;;;;;;;3.65;67.99;101952.06;4991807;28;20030;-21
2022/03/17 08:02:24;;;;;;;29.58;21.48;;;;;;;3.65;67.63;101955.56;4988172;28;20454;-21
2022/03/17 08:04:50;;;;;;;32.08;22.77;;;;;;;3.67;67.73;101953.91;4992103;28;20138;-22
2022/03/17 08:07:16;;;;;;;35.22;22.40;;;;;;;3.71;67.79;101954.94;4991976;28;20030;-21
2022/03/17 08:09:41;;;;;;;36.30;22.92;;;;;;;3.74;68.29;101948.94;4987808;28;20572;-21
2022/03/17 08:12:07;;;;;;;36.70;22.52;;;;;;;3.76;67.87;101947.28;4994540;28;20117;-21
2022/03/17 08:14:33;;;;;;;36.03;23.23;;;;;;;3.81;67.70;101950.97;4998065;28;20479;-22
2022/03/17 08:16:58;;;;;;;37.50;23.85;;;;;;;3.84;68.15;101949.34;4991910;28;20473;-21
2022/03/17 08:19:24;;;;;;;36.58;23.23;;;;;;;3.88;67.68;101939.94;4994832;28;20477;-22
2022/03/17 08:21:49;;;;;;;33.70;23.83;;;;;;;3.91;67.94;101936.56;4988743;28;20044;-22
2022/03/17 08:24:15;;;;;;;38.88;24.77;;;;;;;3.95;67.67;101934.13;4988295;28;20041;-22
2022/03/17 08:26:40;;;;;;;37.75;24.35;;;;;;;3.97;67.78;101937.66;4993469;28;20037;-22
2022/03/17 08:29:06;;;;;;;35.72;23.33;;;;;;;4.02;67.96;101934.34;4999425;28;20183;-22
2022/03/17 08:31:31;;;;;;;37.38;24.40;;;;;;;4.05;67.48;101924.03;4992257;28;20036;-22
2022/03/17 08:33:57;;;;;;;37.10;25.55;;;;;;;4.08;68.10;101919.81;4995150;28;20029;-21
2022/03/17 08:36:23;;;;;;;43.47;24.92;;;;;;;4.12;67.95;101915.59;4992829;28;20570;-21
2022/03/17 08:38:52;;;;;;;39.92;25.05;;;;;;;4.17;68.17;101907.94;4996886;28;20029;-21
2022/03/17 08:41:18;;;;;;;42.60;26.65;;;;;;;4.20;68.02;101906.31;4991922;28;20173;-22
2022/03/17 08:43:43;;;;;;;42.88;25.90;;;;;;;4.26;68.02;101912.63;4992049;28;20076;-22
2022/03/17 08:51:37;;;;;;;43.40;27.25;;;;;;;4.39;68.28;101912.22;5003857;28;20045;-21
2022/03/17 08:54:02;;;;;;;39.85;25.92;;;;;;;4.44;67.93;101925.47;4999459;28;20045;-21
2022/03/17 08:56:29;;;;;;;42.85;27.35;;;;;;;4.51;68.06;101929.19;4992209;28;20083;-21
2022/03/17 08:58:54;;;;;;;40.30;26.80;;;;;;;4.54;67.95;101929.28;4997552;28;20036;-21
2022/03/17 09:01:20;;;;;;;45.30;28.02;;;;;;;4.58;67.99;101931.19;4988490;28;20053;-21
2022/03/17 09:03:45;;;;;;;43.53;28.58;;;;;;;4.64;68.26;101928.81;4991039;28;20049;-21
2022/03/17 09:06:12;;;;;;;45.30;28.70;;;;;;;4.70;67.75;101930.75;4994290;28;20457;-21
2022/03/17 09:08:40;;;;;;;46.00;29.52;;;;;;;4.73;67.89;101923.88;4991583;28;20034;-21
2022/03/17 09:11:05;;;;;;;45.35;29.27;;;;;;;4.81;68.05;101923.28;4990115;28;20117;-21
2022/03/17 09:13:32;;;;;;;47.78;29.13;;;;;;;4.85;68.19;101931.28;4995529;28;20585;-21
2022/03/17 09:15:57;;;;;;;48.08;29.48;;;;;;;4.91;68.11;101924.47;4989904;28;20042;-21
2022/03/17 09:18:23;;;;;;;51.03;31.42;;;;;;;4.96;68.92;101929.03;4988233;28;20389;-21
2022/03/17 09:20:50;;;;;;;45.45;29.88;;;;;;;5.04;68.87;101931.03;4989458;28;20029;-21
2022/03/17 09:23:16;;;;;;;51.30;32.15;;;;;;;5.09;69.07;101930.34;4987514;28;20026;-21
2022/03/17 09:25:42;;;;;;;49.03;30.20;;;;;;;5.16;69.09;101936.66;4989024;28;20088;-21
2022/03/17 09:28:07;;;;;;;50.97;31.70;;;;;;;5.21;68.84;101935.09;4987970;28;20022;-21
2022/03/17 09:30:34;;;;;;;49.88;31.52;;;;;;;5.28;68.73;101930.06;4989777;28;20370;-21
2022/03/17 09:33:01;;;;;;;47.80;31.23;;;;;;;5.35;68.94;101938.19;4986503;28;20468;-21
2022/03/17 09:35:26;;;;;;;50.45;32.15;;;;;;;5.39;69.28;101934.81;4989341;28;20040;-21
2022/03/17 09:37:52;;;;;;;53.60;32.30;;;;;;;5.48;69.57;101935.94;4993304;28;20023;-21
2022/03/17 09:40:17;;;;;;;50.35;33.10;;;;;;;5.54;69.09;101941.41;4993918;28;20019;-21
2022/03/17 09:42:43;;;;;;;51.22;33.40;;;;;;;5.61;68.92;101942.47;4984126;28;20041;-21
2022/03/17 09:45:10;;;;;;;50.00;33.10;;;;;;;5.68;69.58;101941.84;4988321;28;20026;-21
2022/03/17 09:47:38;;;;;;;52.22;32.10;;;;;;;5.75;69.27;101943.81;4991535;28;20045;-21
2022/03/17 09:50:05;;;;;;;51.25;32.55;;;;;;;5.84;69.11;101937.06;4988294;28;20029;-21
2022/03/17 09:52:32;;;;;;;52.72;32.08;;;;;;;5.89;69.12;101940.72;4992840;28;20166;-21
2022/03/17 09:54:58;;;;;;;47.13;31.00;;;;;;;5.97;69.01;101939.22;4995522;28;20025;-21
2022/03/17 09:57:23;;;;;;;53.83;34.25;;;;;;;6.05;68.75;101949.06;4989221;28;20029;-21
2022/03/17 09:59:53;;;;;;;68.05;40.25;;;;;;;6.47;75.29;101945.91;4995852;28;20034;-22
2022/03/17 10:02:19;;;;;;;62.80;38.92;;;;;;;6.68;74.71;101950.88;4993128;28;20392;-21
2022/03/17 10:04:46;;;;;;;75.05;36.75;;;;;;;6.57;72.79;101962.78;4988164;28;20030;-21
2022/03/17 10:07:12;;;;;;;61.90;36.22;;;;;;;6.60;72.02;101962.03;4990807;28;20031;-21
2022/03/17 10:09:37;;;;;;;55.55;35.78;;;;;;;6.65;70.62;101971.78;4990301;28;20397;-21
2022/03/17 10:12:06;;;;;;;55.17;34.30;;;;;;;6.71;69.97;101970.19;4985203;28;20030;-21
2022/03/17 10:14:39;;;;;;;54.97;35.08;;;;;;;6.82;69.68;101973.09;4996269;28;20050;-21
2022/03/17 10:17:10;;;;;;;53.80;34.58;;;;;;;6.87;70.70;101982.00;4990066;28;20357;-21
2022/03/17 10:19:36;;;;;;;53.25;34.63;;;;;;;6.96;69.77;101987.47;4988415;28;20408;-21
2022/03/17 10:22:12;;;;;;;54.60;35.22;;;;;;;7.05;69.20;101992.97;4987712;28;20069;-21
2022/03/17 10:24:39;;;;;;;59.05;37.22;;;;;;;7.15;69.53;101993.22;4994986;28;20025;-21
2022/03/17 10:27:04;;;;;;;57.75;36.88;;;;;;;7.19;69.80;101984.56;4974215;28;20300;-21
2022/03/17 10:29:31;;;;;;;58.58;36.08;;;;;;;7.24;69.34;101990.81;4993019;28;20392;-21
2022/03/17 10:32:05;;;;;;;57.53;36.72;;;;;;;7.30;68.80;101987.47;4992699;28;20026;-21
2022/03/17 10:34:49;;;;;;;58.42;36.70;;;;;;;7.35;68.63;101988.50;4987237;28;20446;-21
2022/03/17 10:37:23;;;;;;;56.45;36.15;;;;;;;7.41;68.67;101985.13;4980976;28;20038;-21
2022/03/17 10:39:53;;;;;;;55.00;37.08;;;;;;;7.48;68.18;101981.81;4995610;28;20022;-21
2022/03/17 10:42:22;;;;;;;54.70;35.35;;;;;;;7.54;68.59;101981.94;4989857;28;20022;-21
2022/03/17 10:44:57;;;;;;;55.33;36.95;;;;;;;7.58;67.99;101981.16;4988120;28;20033;-21
2022/03/17 10:47:24;;;;;;;59.95;36.83;;;;;;;7.66;68.09;101980.47;4991083;28;20032;-21
2022/03/17 10:50:20;;;;;;;54.40;36.20;;;;;;;7.70;68.01;101979.69;4984837;28;20369;-21
2022/03/17 10:52:56;;;;;;;56.40;35.30;;;;;;;7.76;68.12;101984.19;4997957;28;20042;-21
2022/03/17 10:55:30;;;;;;;52.30;35.97;;;;;;;7.80;67.93;101984.31;4992400;28;20022;-21
2022/03/17 10:58:11;;;;;;;56.65;37.88;;;;;;;7.86;67.65;101990.56;4989317;28;20109;-21
2022/03/17 11:00:48;;;;;;;53.25;35.78;;;;;;;7.93;67.78;101995.09;4988178;28;20030;-21
2022/03/17 11:03:14;;;;;;;52.67;35.60;;;;;;;7.97;67.66;101986.44;4989990;28;20041;-21
2022/03/17 11:05:40;;;;;;;55.65;38.95;;;;;;;8.06;67.82;102002.44;4994736;28;20204;-21
2022/03/17 11:08:09;;;;;;;54.65;36.47;;;;;;;8.11;67.75;101994.66;4994981;28;20409;-21
2022/03/17 11:10:36;;;;;;;60.20;38.75;;;;;;;8.19;67.71;102005.31;4993687;28;20101;-21
2022/03/17 11:13:09;;;;;;;56.33;39.28;;;;;;;8.25;67.58;102005.47;4991993;28;20060;-21
2022/03/17 11:15:38;;;;;;;54.60;36.17;;;;;;;8.33;68.26;102006.53;4990156;28;20077;-21
2022/03/17 11:18:05;;;;;;;53.63;36.45;;;;;;;8.36;67.90;102000.44;4995628;28;20028;-21
2022/03/17 11:20:32;;;;;;;52.72;36.80;;;;;;;8.42;67.47;102005.84;4990892;28;20057;-21
2022/03/17 11:23:16;;;;;;;55.58;36.92;;;;;;;8.48;67.83;102003.31;4990204;28;20015;-21
2022/03/17 11:25:52;;;;;;;57.28;36.33;;;;;;;8.55;67.55;102009.66;4985629;28;20511;-21
2022/03/17 11:28:20;;;;;;;57.10;39.05;;;;;;;8.60;67.49;102007.09;4987136;28;20548;-21
2022/03/17 11:30:49;;;;;;;54.53;37.33;;;;;;;8.66;67.40;102006.34;4963003;28;20033;-21